Terminal Aerodrome Forecast
Issued by NWS Upton, NY

Home | Current Version | Previous Version | Text Only | Print | Product List | Glossary On
Versions: 1 2 3 4 5 6 7 8 9 10 11 12 13 14 15 16 17 18 19 20 21 22 23 24 25 26 27 28 29 30 31
000
FTUS41 KOKX 222338
TAFEWR
TAF
KEWR 222338Z 2300/2406 27016G26KT P6SM VCSH SCT070 BKN100
      TEMPO 2300/2301 -SHRA
     FM230200 32015G24KT P6SM SCT120
     FM230600 32012G18KT P6SM SKC
     FM231000 33011KT P6SM SKC
     FM231700 27010KT P6SM SKC
     FM231900 24010KT P6SM SKC
     FM240100 24008KT P6SM FEW250=

USA.gov is the U.S. government's official web portal to all federal, state and local government web resources and services.